sensor_id;sensor_type;location;lat;lon;timestamp;temperature;humidity
11047;DHT22;5576;50.008;10.596;2022-07-04T00:00:16;18.60;99.90
11047;DHT22;5576;50.008;10.596;2022-07-04T00:02:43;18.60;99.90
11047;DHT22;5576;50.008;10.596;2022-07-04T00:05:10;18.70;99.90
11047;DHT22;5576;50.008;10.596;2022-07-04T00:07:37;22.40;99.90
11047;DHT22;5576;50.008;10.596;2022-07-04T00:10:04;18.80;99.90
11047;DHT22;5576;50.008;10.596;2022-07-04T00:12:30;18.60;99.90
11047;DHT22;5576;50.008;10.596;2022-07-04T00:14:56;18.60;99.90
11047;DHT22;5576;50.008;10.596;2022-07-04T00:17:22;18.60;99.90
11047;DHT22;5576;50.008;10.596;2022-07-04T00:19:47;18.40;99.90
11047;DHT22;5576;50.008;10.596;2022-07-04T00:22:13;18.30;99.90
11047;DHT22;5576;50.008;10.596;2022-07-04T00:24:39;18.30;99.90
11047;DHT22;5576;50.008;10.596;2022-07-04T00:27:05;18.20;99.90
11047;DHT22;5576;50.008;10.596;2022-07-04T00:29:30;17.00;99.90
11047;DHT22;5576;50.008;10.596;2022-07-04T00:31:56;21.80;99.90
11047;DHT22;5576;50.008;10.596;2022-07-04T00:34:22;18.40;99.90
11047;DHT22;5576;50.008;10.596;2022-07-04T00:36:48;18.40;99.90
11047;DHT22;5576;50.008;10.596;2022-07-04T00:39:13;18.40;99.90
11047;DHT22;5576;50.008;10.596;2022-07-04T00:41:39;18.30;99.90
11047;DHT22;5576;50.008;10.596;2022-07-04T00:44:08;18.30;99.90
11047;DHT22;5576;50.008;10.596;2022-07-04T00:46:34;20.40;99.90
11047;DHT22;5576;50.008;10.596;2022-07-04T00:49:02;18.20;99.90
11047;DHT22;5576;50.008;10.596;2022-07-04T00:51:28;17.90;99.90
11047;DHT22;5576;50.008;10.596;2022-07-04T00:53:54;18.60;99.90
11047;DHT22;5576;50.008;10.596;2022-07-04T00:56:21;17.70;99.90
11047;DHT22;5576;50.008;10.596;2022-07-04T00:58:47;17.70;99.90
11047;DHT22;5576;50.008;10.596;2022-07-04T01:01:14;17.60;99.90
11047;DHT22;5576;50.008;10.596;2022-07-04T01:03:39;17.70;99.90
11047;DHT22;5576;50.008;10.596;2022-07-04T01:06:06;17.50;99.90
11047;DHT22;5576;50.008;10.596;2022-07-04T01:08:37;17.50;99.90
11047;DHT22;5576;50.008;10.596;2022-07-04T01:11:03;17.50;99.90
11047;DHT22;5576;50.008;10.596;2022-07-04T01:13:29;17.30;99.90
11047;DHT22;5576;50.008;10.596;2022-07-04T01:15:54;17.30;99.90
11047;DHT22;5576;50.008;10.596;2022-07-04T01:18:21;17.20;99.90
11047;DHT22;5576;50.008;10.596;2022-07-04T01:20:46;17.30;99.90
11047;DHT22;5576;50.008;10.596;2022-07-04T01:23:12;17.20;99.90
11047;DHT22;5576;50.008;10.596;2022-07-04T01:25:38;17.30;99.90
11047;DHT22;5576;50.008;10.596;2022-07-04T01:28:04;14.70;99.90
11047;DHT22;5576;50.008;10.596;2022-07-04T01:30:32;17.40;99.90
11047;DHT22;5576;50.008;10.596;2022-07-04T01:32:58;17.00;99.90
11047;DHT22;5576;50.008;10.596;2022-07-04T01:35:24;16.50;99.90
11047;DHT22;5576;50.008;10.596;2022-07-04T01:37:50;16.70;99.90
11047;DHT22;5576;50.008;10.596;2022-07-04T01:40:16;16.80;99.90
11047;DHT22;5576;50.008;10.596;2022-07-04T01:42:42;15.30;99.90
11047;DHT22;5576;50.008;10.596;2022-07-04T01:45:09;16.90;99.90
11047;DHT22;5576;50.008;10.596;2022-07-04T01:47:36;17.00;99.90
11047;DHT22;5576;50.008;10.596;2022-07-04T01:50:04;17.10;99.90
11047;DHT22;5576;50.008;10.596;2022-07-04T01:52:30;17.40;99.90
11047;DHT22;5576;50.008;10.596;2022-07-04T01:54:56;17.40;99.90
11047;DHT22;5576;50.008;10.596;2022-07-04T01:57:22;17.40;99.90
11047;DHT22;5576;50.008;10.596;2022-07-04T01:59:47;18.80;99.90
11047;DHT22;5576;50.008;10.596;2022-07-04T02:02:36;17.40;99.90
11047;DHT22;5576;50.008;10.596;2022-07-04T02:05:03;17.40;99.90
11047;DHT22;5576;50.008;10.596;2022-07-04T02:07:28;18.80;99.90
11047;DHT22;5576;50.008;10.596;2022-07-04T02:09:54;17.70;99.90
11047;DHT22;5576;50.008;10.596;2022-07-04T02:12:20;17.50;99.90
11047;DHT22;5576;50.008;10.596;2022-07-04T02:15:06;17.40;99.90
11047;DHT22;5576;50.008;10.596;2022-07-04T02:17:32;17.30;99.90
11047;DHT22;5576;50.008;10.596;2022-07-04T02:19:58;17.40;99.90
11047;DHT22;5576;50.008;10.596;2022-07-04T02:22:23;15.60;99.90
11047;DHT22;5576;50.008;10.596;2022-07-04T02:24:49;18.70;99.90
11047;DHT22;5576;50.008;10.596;2022-07-04T02:27:15;17.60;99.90
11047;DHT22;5576;50.008;10.596;2022-07-04T02:29:41;17.60;99.90
11047;DHT22;5576;50.008;10.596;2022-07-04T02:32:07;17.50;99.90
11047;DHT22;5576;50.008;10.596;2022-07-04T02:34:32;17.50;99.90
11047;DHT22;5576;50.008;10.596;2022-07-04T02:36:58;17.40;99.90
11047;DHT22;5576;50.008;10.596;2022-07-04T02:39:24;17.30;99.90
11047;DHT22;5576;50.008;10.596;2022-07-04T02:41:50;17.20;99.90
11047;DHT22;5576;50.008;10.596;2022-07-04T02:44:15;17.10;99.90
11047;DHT22;5576;50.008;10.596;2022-07-04T02:46:41;18.40;99.90
11047;DHT22;5576;50.008;10.596;2022-07-04T02:49:07;17.00;99.90
11047;DHT22;5576;50.008;10.596;2022-07-04T02:51:33;16.90;99.90
11047;DHT22;5576;50.008;10.596;2022-07-04T02:53:59;16.90;99.90
11047;DHT22;5576;50.008;10.596;2022-07-04T02:56:25;17.00;99.90
11047;DHT22;5576;50.008;10.596;2022-07-04T02:58:51;19.50;99.90
11047;DHT22;5576;50.008;10.596;2022-07-04T03:01:17;14.70;99.90
11047;DHT22;5576;50.008;10.596;2022-07-04T03:03:45;17.00;99.90
11047;DHT22;5576;50.008;10.596;2022-07-04T03:06:12;17.00;99.90
11047;DHT22;5576;50.008;10.596;2022-07-04T03:08:38;17.00;99.90
11047;DHT22;5576;50.008;10.596;2022-07-04T03:11:04;17.00;99.90
11047;DHT22;5576;50.008;10.596;2022-07-04T03:13:30;17.00;99.90
11047;DHT22;5576;50.008;10.596;2022-07-04T03:15:57;16.90;99.90
11047;DHT22;5576;50.008;10.596;2022-07-04T03:18:22;16.80;99.90
11047;DHT22;5576;50.008;10.596;2022-07-04T03:20:49;16.90;99.90
11047;DHT22;5576;50.008;10.596;2022-07-04T03:23:15;17.20;99.90
11047;DHT22;5576;50.008;10.596;2022-07-04T03:25:41;17.20;99.90
11047;DHT22;5576;50.008;10.596;2022-07-04T03:28:07;17.20;99.90
11047;DHT22;5576;50.008;10.596;2022-07-04T03:30:33;17.10;99.90
11047;DHT22;5576;50.008;10.596;2022-07-04T03:32:59;16.90;99.90
11047;DHT22;5576;50.008;10.596;2022-07-04T03:35:25;16.90;99.90
11047;DHT22;5576;50.008;10.596;2022-07-04T03:37:52;18.10;99.90
11047;DHT22;5576;50.008;10.596;2022-07-04T03:40:22;16.40;99.90
11047;DHT22;5576;50.008;10.596;2022-07-04T03:42:48;16.80;99.90
11047;DHT22;5576;50.008;10.596;2022-07-04T03:45:14;16.70;99.90
11047;DHT22;5576;50.008;10.596;2022-07-04T03:47:40;16.60;99.90
11047;DHT22;5576;50.008;10.596;2022-07-04T03:50:06;16.80;99.90
11047;DHT22;5576;50.008;10.596;2022-07-04T03:52:32;16.80;99.90
11047;DHT22;5576;50.008;10.596;2022-07-04T03:54:58;16.80;99.90
11047;DHT22;5576;50.008;10.596;2022-07-04T03:57:23;20.30;99.90
11047;DHT22;5576;50.008;10.596;2022-07-04T03:59:49;16.60;99.90
11047;DHT22;5576;50.008;10.596;2022-07-04T04:02:15;16.80;99.90
11047;DHT22;5576;50.008;10.596;2022-07-04T04:04:41;15.90;99.90
11047;DHT22;5576;50.008;10.596;2022-07-04T04:07:26;16.80;99.90
11047;DHT22;5576;50.008;10.596;2022-07-04T04:09:52;16.90;99.90
11047;DHT22;5576;50.008;10.596;2022-07-04T04:12:18;19.20;99.90
11047;DHT22;5576;50.008;10.596;2022-07-04T04:14:44;16.70;99.90
11047;DHT22;5576;50.008;10.596;2022-07-04T04:17:10;16.70;99.90
11047;DHT22;5576;50.008;10.596;2022-07-04T04:19:35;16.70;99.90
11047;DHT22;5576;50.008;10.596;2022-07-04T04:22:01;16.70;99.90
11047;DHT22;5576;50.008;10.596;2022-07-04T04:24:27;16.80;99.90
11047;DHT22;5576;50.008;10.596;2022-07-04T04:26:53;16.70;99.90
11047;DHT22;5576;50.008;10.596;2022-07-04T04:29:18;16.40;99.90
11047;DHT22;5576;50.008;10.596;2022-07-04T04:34:11;16.30;99.90
11047;DHT22;5576;50.008;10.596;2022-07-04T04:36:36;16.40;99.90
11047;DHT22;5576;50.008;10.596;2022-07-04T04:39:02;17.80;99.90
11047;DHT22;5576;50.008;10.596;2022-07-04T04:41:28;16.30;99.90
11047;DHT22;5576;50.008;10.596;2022-07-04T04:43:54;16.30;99.90
11047;DHT22;5576;50.008;10.596;2022-07-04T04:46:20;16.50;99.90
11047;DHT22;5576;50.008;10.596;2022-07-04T04:48:46;16.60;99.90
11047;DHT22;5576;50.008;10.596;2022-07-04T04:51:12;18.80;99.90
11047;DHT22;5576;50.008;10.596;2022-07-04T04:53:38;17.00;99.90
11047;DHT22;5576;50.008;10.596;2022-07-04T04:56:04;17.10;99.90
11047;DHT22;5576;50.008;10.596;2022-07-04T04:58:29;17.20;99.90
11047;DHT22;5576;50.008;10.596;2022-07-04T05:00:55;17.20;99.90
11047;DHT22;5576;50.008;10.596;2022-07-04T05:03:21;17.30;99.90
11047;DHT22;5576;50.008;10.596;2022-07-04T05:05:46;15.60;99.90
11047;DHT22;5576;50.008;10.596;2022-07-04T05:08:12;17.30;99.90
11047;DHT22;5576;50.008;10.596;2022-07-04T05:10:39;18.10;99.90
11047;DHT22;5576;50.008;10.596;2022-07-04T05:13:05;14.90;99.90
11047;DHT22;5576;50.008;10.596;2022-07-04T05:15:31;17.20;99.90
11047;DHT22;5576;50.008;10.596;2022-07-04T05:17:57;17.30;99.90
11047;DHT22;5576;50.008;10.596;2022-07-04T05:20:23;16.00;99.90
11047;DHT22;5576;50.008;10.596;2022-07-04T05:22:48;16.50;99.90
11047;DHT22;5576;50.008;10.596;2022-07-04T05:25:14;17.40;99.90
11047;DHT22;5576;50.008;10.596;2022-07-04T05:27:40;17.50;99.90
11047;DHT22;5576;50.008;10.596;2022-07-04T05:30:06;17.60;99.90
11047;DHT22;5576;50.008;10.596;2022-07-04T05:32:32;17.80;99.90
11047;DHT22;5576;50.008;10.596;2022-07-04T05:34:58;17.80;99.90
11047;DHT22;5576;50.008;10.596;2022-07-04T05:37:24;17.80;99.90
11047;DHT22;5576;50.008;10.596;2022-07-04T05:39:50;17.80;99.90
11047;DHT22;5576;50.008;10.596;2022-07-04T05:42:16;17.80;99.90
11047;DHT22;5576;50.008;10.596;2022-07-04T05:44:42;17.90;99.90
11047;DHT22;5576;50.008;10.596;2022-07-04T05:47:07;18.00;99.90
11047;DHT22;5576;50.008;10.596;2022-07-04T05:49:33;18.10;99.90
11047;DHT22;5576;50.008;10.596;2022-07-04T05:51:59;18.20;99.90
11047;DHT22;5576;50.008;10.596;2022-07-04T05:54:28;21.50;99.90
11047;DHT22;5576;50.008;10.596;2022-07-04T05:56:54;18.40;99.90
11047;DHT22;5576;50.008;10.596;2022-07-04T05:59:19;18.40;99.90
11047;DHT22;5576;50.008;10.596;2022-07-04T06:01:45;20.20;99.90
11047;DHT22;5576;50.008;10.596;2022-07-04T06:04:11;18.70;99.90
11047;DHT22;5576;50.008;10.596;2022-07-04T06:06:37;18.80;99.90
11047;DHT22;5576;50.008;10.596;2022-07-04T06:09:03;18.90;99.90
11047;DHT22;5576;50.008;10.596;2022-07-04T06:11:29;19.00;99.90
11047;DHT22;5576;50.008;10.596;2022-07-04T06:13:55;19.00;99.90
11047;DHT22;5576;50.008;10.596;2022-07-04T06:16:21;19.10;99.90
11047;DHT22;5576;50.008;10.596;2022-07-04T06:18:47;19.10;99.90
11047;DHT22;5576;50.008;10.596;2022-07-04T06:23:39;19.20;99.90
11047;DHT22;5576;50.008;10.596;2022-07-04T06:26:05;19.30;99.90
11047;DHT22;5576;50.008;10.596;2022-07-04T06:28:30;19.30;99.90
11047;DHT22;5576;50.008;10.596;2022-07-04T06:30:56;19.30;99.90
11047;DHT22;5576;50.008;10.596;2022-07-04T06:33:22;19.50;99.90
11047;DHT22;5576;50.008;10.596;2022-07-04T06:35:48;19.50;99.90
11047;DHT22;5576;50.008;10.596;2022-07-04T06:38:21;19.40;99.90
11047;DHT22;5576;50.008;10.596;2022-07-04T06:40:49;19.60;99.90
11047;DHT22;5576;50.008;10.596;2022-07-04T06:43:16;19.70;99.90
11047;DHT22;5576;50.008;10.596;2022-07-04T06:45:42;19.70;99.90
11047;DHT22;5576;50.008;10.596;2022-07-04T06:48:08;18.90;99.90
11047;DHT22;5576;50.008;10.596;2022-07-04T06:50:34;19.80;99.90
11047;DHT22;5576;50.008;10.596;2022-07-04T06:53:01;19.90;99.90
11047;DHT22;5576;50.008;10.596;2022-07-04T06:55:27;19.90;99.90
11047;DHT22;5576;50.008;10.596;2022-07-04T06:57:53;19.90;99.90
11047;DHT22;5576;50.008;10.596;2022-07-04T07:00:19;17.70;99.90
11047;DHT22;5576;50.008;10.596;2022-07-04T07:02:44;20.10;99.90
11047;DHT22;5576;50.008;10.596;2022-07-04T07:05:10;20.10;99.90
11047;DHT22;5576;50.008;10.596;2022-07-04T07:07:36;19.30;99.90
11047;DHT22;5576;50.008;10.596;2022-07-04T07:10:02;20.20;99.90
11047;DHT22;5576;50.008;10.596;2022-07-04T07:12:29;20.30;99.90
11047;DHT22;5576;50.008;10.596;2022-07-04T07:14:55;20.30;99.90
11047;DHT22;5576;50.008;10.596;2022-07-04T07:17:21;20.30;99.90
11047;DHT22;5576;50.008;10.596;2022-07-04T07:19:47;23.10;99.90
11047;DHT22;5576;50.008;10.596;2022-07-04T07:22:13;20.40;99.90
11047;DHT22;5576;50.008;10.596;2022-07-04T07:24:39;20.50;99.90
11047;DHT22;5576;50.008;10.596;2022-07-04T07:27:05;20.50;99.90
11047;DHT22;5576;50.008;10.596;2022-07-04T07:29:31;20.50;99.90
11047;DHT22;5576;50.008;10.596;2022-07-04T07:31:58;20.60;99.90
11047;DHT22;5576;50.008;10.596;2022-07-04T07:34:24;20.60;99.90
11047;DHT22;5576;50.008;10.596;2022-07-04T07:36:52;20.70;99.90
11047;DHT22;5576;50.008;10.596;2022-07-04T07:39:18;20.80;99.90
11047;DHT22;5576;50.008;10.596;2022-07-04T07:41:43;21.40;99.90
11047;DHT22;5576;50.008;10.596;2022-07-04T07:44:09;20.90;99.90
11047;DHT22;5576;50.008;10.596;2022-07-04T07:46:35;20.90;99.90
11047;DHT22;5576;50.008;10.596;2022-07-04T07:49:01;21.00;99.90
11047;DHT22;5576;50.008;10.596;2022-07-04T07:51:27;21.10;99.90
11047;DHT22;5576;50.008;10.596;2022-07-04T07:53:52;21.20;99.90
11047;DHT22;5576;50.008;10.596;2022-07-04T07:56:18;21.20;99.90
11047;DHT22;5576;50.008;10.596;2022-07-04T07:58:44;21.30;99.90
11047;DHT22;5576;50.008;10.596;2022-07-04T08:01:09;21.40;99.90
11047;DHT22;5576;50.008;10.596;2022-07-04T08:03:35;21.50;99.90
11047;DHT22;5576;50.008;10.596;2022-07-04T08:06:20;19.30;99.90
11047;DHT22;5576;50.008;10.596;2022-07-04T08:08:46;21.80;99.90
11047;DHT22;5576;50.008;10.596;2022-07-04T08:11:12;21.80;99.90
11047;DHT22;5576;50.008;10.596;2022-07-04T08:13:39;19.10;99.90
11047;DHT22;5576;50.008;10.596;2022-07-04T08:16:06;22.10;99.90
11047;DHT22;5576;50.008;10.596;2022-07-04T08:18:32;22.20;99.90
11047;DHT22;5576;50.008;10.596;2022-07-04T08:20:59;22.20;99.90
11047;DHT22;5576;50.008;10.596;2022-07-04T08:23:25;22.30;99.90
11047;DHT22;5576;50.008;10.596;2022-07-04T08:25:51;22.40;99.90
11047;DHT22;5576;50.008;10.596;2022-07-04T08:28:17;22.40;99.90
11047;DHT22;5576;50.008;10.596;2022-07-04T08:30:43;22.50;99.90
11047;DHT22;5576;50.008;10.596;2022-07-04T08:33:08;22.60;99.90
11047;DHT22;5576;50.008;10.596;2022-07-04T08:35:34;22.70;99.90
11047;DHT22;5576;50.008;10.596;2022-07-04T08:38:00;22.70;99.90
11047;DHT22;5576;50.008;10.596;2022-07-04T08:40:27;22.90;99.90
11047;DHT22;5576;50.008;10.596;2022-07-04T08:42:54;23.00;99.90
11047;DHT22;5576;50.008;10.596;2022-07-04T08:45:26;23.10;99.90
11047;DHT22;5576;50.008;10.596;2022-07-04T08:48:00;23.10;99.90
11047;DHT22;5576;50.008;10.596;2022-07-04T08:50:30;23.20;99.90
11047;DHT22;5576;50.008;10.596;2022-07-04T08:53:00;23.30;99.90
11047;DHT22;5576;50.008;10.596;2022-07-04T08:55:28;23.30;99.90
11047;DHT22;5576;50.008;10.596;2022-07-04T08:58:14;23.40;99.90
11047;DHT22;5576;50.008;10.596;2022-07-04T09:00:58;23.50;99.90
11047;DHT22;5576;50.008;10.596;2022-07-04T09:03:25;23.50;99.90
11047;DHT22;5576;50.008;10.596;2022-07-04T09:05:52;23.60;99.90
11047;DHT22;5576;50.008;10.596;2022-07-04T09:08:18;23.70;99.90
11047;DHT22;5576;50.008;10.596;2022-07-04T09:10:44;22.30;99.90
11047;DHT22;5576;50.008;10.596;2022-07-04T09:13:11;24.10;99.90
11047;DHT22;5576;50.008;10.596;2022-07-04T09:15:38;24.10;99.90
11047;DHT22;5576;50.008;10.596;2022-07-04T09:18:04;25.70;99.90
11047;DHT22;5576;50.008;10.596;2022-07-04T09:20:32;24.10;99.90
11047;DHT22;5576;50.008;10.596;2022-07-04T09:22:58;24.10;99.90
11047;DHT22;5576;50.008;10.596;2022-07-04T09:25:25;24.10;99.90
11047;DHT22;5576;50.008;10.596;2022-07-04T09:27:53;23.20;99.90
11047;DHT22;5576;50.008;10.596;2022-07-04T09:30:23;24.20;99.90
11047;DHT22;5576;50.008;10.596;2022-07-04T09:32:51;22.30;99.90
11047;DHT22;5576;50.008;10.596;2022-07-04T09:35:22;24.40;99.90
11047;DHT22;5576;50.008;10.596;2022-07-04T09:37:50;24.60;99.90
11047;DHT22;5576;50.008;10.596;2022-07-04T09:40:36;24.70;99.90
11047;DHT22;5576;50.008;10.596;2022-07-04T09:43:23;24.80;99.90
11047;DHT22;5576;50.008;10.596;2022-07-04T09:45:54;24.90;99.90
11047;DHT22;5576;50.008;10.596;2022-07-04T09:48:20;25.00;99.90
11047;DHT22;5576;50.008;10.596;2022-07-04T09:50:46;25.10;99.90
11047;DHT22;5576;50.008;10.596;2022-07-04T09:53:12;25.30;99.90
11047;DHT22;5576;50.008;10.596;2022-07-04T09:55:38;25.30;99.90
11047;DHT22;5576;50.008;10.596;2022-07-04T09:58:09;25.40;99.90
11047;DHT22;5576;50.008;10.596;2022-07-04T10:00:37;25.60;99.90
11047;DHT22;5576;50.008;10.596;2022-07-04T10:03:23;25.70;99.90
11047;DHT22;5576;50.008;10.596;2022-07-04T10:06:09;28.50;99.90
11047;DHT22;5576;50.008;10.596;2022-07-04T10:08:37;25.80;99.90
11047;DHT22;5576;50.008;10.596;2022-07-04T10:11:04;25.80;99.90
11047;DHT22;5576;50.008;10.596;2022-07-04T10:13:31;25.90;99.90
11047;DHT22;5576;50.008;10.596;2022-07-04T10:15:57;26.00;99.90
11047;DHT22;5576;50.008;10.596;2022-07-04T10:18:23;25.80;99.90
11047;DHT22;5576;50.008;10.596;2022-07-04T10:20:51;26.10;99.90
11047;DHT22;5576;50.008;10.596;2022-07-04T10:23:19;26.20;99.90
11047;DHT22;5576;50.008;10.596;2022-07-04T10:25:47;26.40;99.90
11047;DHT22;5576;50.008;10.596;2022-07-04T10:28:13;26.40;99.90
11047;DHT22;5576;50.008;10.596;2022-07-04T10:30:40;26.40;99.90
11047;DHT22;5576;50.008;10.596;2022-07-04T10:33:09;26.50;99.90
11047;DHT22;5576;50.008;10.596;2022-07-04T10:35:53;26.40;99.90
11047;DHT22;5576;50.008;10.596;2022-07-04T10:38:21;26.50;99.90
11047;DHT22;5576;50.008;10.596;2022-07-04T10:40:50;26.40;99.90
11047;DHT22;5576;50.008;10.596;2022-07-04T10:54:17;24.50;99.90
11047;DHT22;5576;50.008;10.596;2022-07-04T10:57:19;27.00;99.90
11047;DHT22;5576;50.008;10.596;2022-07-04T11:00:05;27.10;99.90
11047;DHT22;5576;50.008;10.596;2022-07-04T11:02:34;27.10;99.90
11047;DHT22;5576;50.008;10.596;2022-07-04T11:05:05;27.10;99.90
11047;DHT22;5576;50.008;10.596;2022-07-04T11:17:56;27.40;99.90
11047;DHT22;5576;50.008;10.596;2022-07-04T11:20:24;29.90;99.90
11047;DHT22;5576;50.008;10.596;2022-07-04T11:22:50;27.40;99.90
11047;DHT22;5576;50.008;10.596;2022-07-04T11:25:16;27.40;99.90
11047;DHT22;5576;50.008;10.596;2022-07-04T11:27:42;27.60;99.90
11047;DHT22;5576;50.008;10.596;2022-07-04T11:30:09;29.20;99.90
11047;DHT22;5576;50.008;10.596;2022-07-04T11:32:36;29.30;99.90
11047;DHT22;5576;50.008;10.596;2022-07-04T11:35:05;27.80;99.90
11047;DHT22;5576;50.008;10.596;2022-07-04T11:37:32;27.80;99.90
11047;DHT22;5576;50.008;10.596;2022-07-04T11:39:58;27.90;99.90
11047;DHT22;5576;50.008;10.596;2022-07-04T11:43:04;28.10;99.90
11047;DHT22;5576;50.008;10.596;2022-07-04T11:45:50;27.90;99.90
11047;DHT22;5576;50.008;10.596;2022-07-04T11:48:24;27.80;99.90
11047;DHT22;5576;50.008;10.596;2022-07-04T11:50:50;27.70;99.90
11047;DHT22;5576;50.008;10.596;2022-07-04T11:53:17;27.60;99.90
11047;DHT22;5576;50.008;10.596;2022-07-04T11:55:58;27.80;99.90
11047;DHT22;5576;50.008;10.596;2022-07-04T11:58:43;28.20;99.20
11047;DHT22;5576;50.008;10.596;2022-07-04T12:01:09;29.00;99.50
11047;DHT22;5576;50.008;10.596;2022-07-04T12:03:35;28.30;99.20
11047;DHT22;5576;50.008;10.596;2022-07-04T12:06:02;28.50;99.10
11047;DHT22;5576;50.008;10.596;2022-07-04T12:08:28;28.50;99.10
11047;DHT22;5576;50.008;10.596;2022-07-04T12:10:54;31.50;98.90
11047;DHT22;5576;50.008;10.596;2022-07-04T12:13:20;28.40;97.60
11047;DHT22;5576;50.008;10.596;2022-07-04T12:15:47;28.30;97.20
11047;DHT22;5576;50.008;10.596;2022-07-04T12:20:42;28.50;98.00
11047;DHT22;5576;50.008;10.596;2022-07-04T12:23:09;28.70;97.30
11047;DHT22;5576;50.008;10.596;2022-07-04T12:25:37;28.80;97.40
11047;DHT22;5576;50.008;10.596;2022-07-04T12:28:06;28.90;96.80
11047;DHT22;5576;50.008;10.596;2022-07-04T12:30:34;27.50;95.70
11047;DHT22;5576;50.008;10.596;2022-07-04T12:33:03;29.00;95.40
11047;DHT22;5576;50.008;10.596;2022-07-04T12:40:28;27.80;94.30
11047;DHT22;5576;50.008;10.596;2022-07-04T12:42:56;29.30;94.30
11047;DHT22;5576;50.008;10.596;2022-07-04T12:45:22;29.30;94.20
11047;DHT22;5576;50.008;10.596;2022-07-04T12:47:48;29.20;92.60
11047;DHT22;5576;50.008;10.596;2022-07-04T12:50:14;29.10;93.10
11047;DHT22;5576;50.008;10.596;2022-07-04T12:52:40;29.10;93.30
11047;DHT22;5576;50.008;10.596;2022-07-04T12:55:08;29.20;93.50
11047;DHT22;5576;50.008;10.596;2022-07-04T12:57:36;29.20;94.00
11047;DHT22;5576;50.008;10.596;2022-07-04T13:00:02;29.20;93.90
11047;DHT22;5576;50.008;10.596;2022-07-04T13:02:29;29.50;93.20
11047;DHT22;5576;50.008;10.596;2022-07-04T13:04:54;29.50;93.50
11047;DHT22;5576;50.008;10.596;2022-07-04T13:07:20;29.50;93.00
11047;DHT22;5576;50.008;10.596;2022-07-04T13:09:46;29.20;93.00
11047;DHT22;5576;50.008;10.596;2022-07-04T13:12:12;29.70;92.30
11047;DHT22;5576;50.008;10.596;2022-07-04T13:14:55;29.70;92.70
11047;DHT22;5576;50.008;10.596;2022-07-04T13:17:22;29.80;91.00
11047;DHT22;5576;50.008;10.596;2022-07-04T13:19:48;30.00;91.00
11047;DHT22;5576;50.008;10.596;2022-07-04T13:22:14;30.00;90.80
11047;DHT22;5576;50.008;10.596;2022-07-04T13:24:39;30.10;92.40
11047;DHT22;5576;50.008;10.596;2022-07-04T13:27:05;30.20;90.70
11047;DHT22;5576;50.008;10.596;2022-07-04T13:29:31;30.30;90.00
11047;DHT22;5576;50.008;10.596;2022-07-04T13:31:56;30.20;89.50
11047;DHT22;5576;50.008;10.596;2022-07-04T13:34:22;30.20;89.50
11047;DHT22;5576;50.008;10.596;2022-07-04T13:36:48;30.10;90.50
11047;DHT22;5576;50.008;10.596;2022-07-04T13:39:14;30.00;90.30
11047;DHT22;5576;50.008;10.596;2022-07-04T13:41:42;29.80;90.10
11047;DHT22;5576;50.008;10.596;2022-07-04T13:44:08;29.80;90.50
11047;DHT22;5576;50.008;10.596;2022-07-04T13:46:34;29.90;90.80
11047;DHT22;5576;50.008;10.596;2022-07-04T13:49:03;32.10;90.80
11047;DHT22;5576;50.008;10.596;2022-07-04T13:51:30;29.80;90.60
11047;DHT22;5576;50.008;10.596;2022-07-04T13:53:55;29.80;91.00
11047;DHT22;5576;50.008;10.596;2022-07-04T13:56:21;29.70;91.00
11047;DHT22;5576;50.008;10.596;2022-07-04T13:58:48;29.80;90.50
11047;DHT22;5576;50.008;10.596;2022-07-04T14:01:14;29.80;90.30
11047;DHT22;5576;50.008;10.596;2022-07-04T14:03:42;29.70;88.90
11047;DHT22;5576;50.008;10.596;2022-07-04T14:06:08;29.80;90.10
11047;DHT22;5576;50.008;10.596;2022-07-04T14:08:34;29.70;89.80
11047;DHT22;5576;50.008;10.596;2022-07-04T14:11:00;29.70;90.20
11047;DHT22;5576;50.008;10.596;2022-07-04T14:13:26;29.50;89.80
11047;DHT22;5576;50.008;10.596;2022-07-04T14:15:52;29.30;90.10
11047;DHT22;5576;50.008;10.596;2022-07-04T14:18:18;29.10;90.40
11047;DHT22;5576;50.008;10.596;2022-07-04T14:20:43;29.10;90.60
11047;DHT22;5576;50.008;10.596;2022-07-04T14:23:09;29.20;90.10
11047;DHT22;5576;50.008;10.596;2022-07-04T14:25:35;30.00;90.60
11047;DHT22;5576;50.008;10.596;2022-07-04T14:28:01;29.40;90.50
11047;DHT22;5576;50.008;10.596;2022-07-04T14:30:26;31.90;91.50
11047;DHT22;5576;50.008;10.596;2022-07-04T14:32:52;29.70;88.90
11047;DHT22;5576;50.008;10.596;2022-07-04T14:35:18;29.70;89.80
11047;DHT22;5576;50.008;10.596;2022-07-04T14:37:44;29.60;87.60
11047;DHT22;5576;50.008;10.596;2022-07-04T14:40:10;29.50;87.90
11047;DHT22;5576;50.008;10.596;2022-07-04T14:42:37;29.80;87.50
11047;DHT22;5576;50.008;10.596;2022-07-04T14:45:03;29.90;87.90
11047;DHT22;5576;50.008;10.596;2022-07-04T14:47:28;30.10;89.40
11047;DHT22;5576;50.008;10.596;2022-07-04T14:49:57;30.80;90.10
11047;DHT22;5576;50.008;10.596;2022-07-04T14:52:23;30.30;87.90
11047;DHT22;5576;50.008;10.596;2022-07-04T14:54:48;30.30;87.10
11047;DHT22;5576;50.008;10.596;2022-07-04T14:57:14;30.40;88.10
11047;DHT22;5576;50.008;10.596;2022-07-04T14:59:40;30.40;89.10
11047;DHT22;5576;50.008;10.596;2022-07-04T15:02:06;30.50;86.10
11047;DHT22;5576;50.008;10.596;2022-07-04T15:04:32;30.60;87.40
11047;DHT22;5576;50.008;10.596;2022-07-04T15:06:58;30.40;86.00
11047;DHT22;5576;50.008;10.596;2022-07-04T15:09:24;29.40;86.10
11047;DHT22;5576;50.008;10.596;2022-07-04T15:11:51;31.50;86.40
11047;DHT22;5576;50.008;10.596;2022-07-04T15:14:17;30.50;87.00
11047;DHT22;5576;50.008;10.596;2022-07-04T15:16:43;30.60;85.60
11047;DHT22;5576;50.008;10.596;2022-07-04T15:19:09;31.30;85.00
11047;DHT22;5576;50.008;10.596;2022-07-04T15:21:35;30.60;83.20
11047;DHT22;5576;50.008;10.596;2022-07-04T15:24:21;30.60;84.30
11047;DHT22;5576;50.008;10.596;2022-07-04T15:26:49;30.90;86.00
11047;DHT22;5576;50.008;10.596;2022-07-04T15:29:16;31.00;83.40
11047;DHT22;5576;50.008;10.596;2022-07-04T15:31:43;30.70;80.60
11047;DHT22;5576;50.008;10.596;2022-07-04T15:34:10;30.70;82.00
11047;DHT22;5576;50.008;10.596;2022-07-04T15:36:36;30.70;81.50
11047;DHT22;5576;50.008;10.596;2022-07-04T15:39:06;30.80;82.50
11047;DHT22;5576;50.008;10.596;2022-07-04T15:41:33;28.90;78.50
11047;DHT22;5576;50.008;10.596;2022-07-04T15:44:00;30.80;81.00
11047;DHT22;5576;50.008;10.596;2022-07-04T15:46:25;30.80;79.50
11047;DHT22;5576;50.008;10.596;2022-07-04T15:48:51;30.80;79.10
11047;DHT22;5576;50.008;10.596;2022-07-04T15:51:16;30.70;80.10
11047;DHT22;5576;50.008;10.596;2022-07-04T15:53:42;30.60;81.30
11047;DHT22;5576;50.008;10.596;2022-07-04T15:56:08;30.70;81.50
11047;DHT22;5576;50.008;10.596;2022-07-04T15:58:34;30.60;80.80
11047;DHT22;5576;50.008;10.596;2022-07-04T16:00:59;30.60;82.10
11047;DHT22;5576;50.008;10.596;2022-07-04T16:03:25;30.60;80.00